createdAt,value
2023-01-27T00:00:11.810Z,97089.28
2023-01-27T00:01:37.732Z,97092.22
2023-01-27T00:02:58.671Z,97082.09
2023-01-27T00:04:21.854Z,97085.84
2023-01-27T00:05:42.800Z,97087.69
2023-01-27T00:07:03.549Z,97089.56
2023-01-27T00:08:24.057Z,97088.50
2023-01-27T00:09:47.456Z,97087.97
2023-01-27T00:11:10.761Z,97086.91
2023-01-27T00:12:31.289Z,97089.56
2023-01-27T00:13:54.061Z,97087.69
2023-01-27T00:15:15.510Z,97091.97
2023-01-27T00:16:39.126Z,97089.81
2023-01-27T00:17:59.846Z,97092.22
2023-01-27T00:19:20.828Z,97090.88
2023-01-27T00:20:41.855Z,97091.69
2023-01-27T00:22:04.962Z,97096.72
2023-01-27T00:23:26.575Z,97098.88
2023-01-27T00:24:49.932Z,97092.47
2023-01-27T00:26:12.312Z,97093.00
2023-01-27T00:27:36.610Z,97093.81
2023-01-27T00:28:59.656Z,97089.28
2023-01-27T00:30:22.977Z,97081.56
2023-01-27T00:31:44.043Z,97080.00
2023-01-27T00:33:04.738Z,97075.72
2023-01-27T00:34:29.917Z,97087.16
2023-01-27T00:35:56.666Z,97082.09
2023-01-27T00:37:20.093Z,97084.22
2023-01-27T00:38:40.667Z,97086.09
2023-01-27T00:40:07.442Z,97084.75
2023-01-27T00:41:28.175Z,97083.97
2023-01-27T00:42:48.815Z,97082.66
2023-01-27T00:44:09.791Z,97089.28
2023-01-27T00:45:33.926Z,97086.06
2023-01-27T00:46:54.702Z,97087.41
2023-01-27T00:48:17.568Z,97086.34
2023-01-27T00:49:40.372Z,97086.34
2023-01-27T00:51:01.001Z,97088.19
2023-01-27T00:52:21.580Z,97094.88
2023-01-27T00:53:42.374Z,97089.53
2023-01-27T00:55:07.067Z,97095.91
2023-01-27T00:56:30.535Z,97090.31
2023-01-27T00:57:53.296Z,97088.72
2023-01-27T00:59:14.134Z,97087.94
2023-01-27T01:00:35.016Z,97089.03
2023-01-27T01:01:55.717Z,97091.94
2023-01-27T01:03:16.551Z,97091.16
2023-01-27T01:04:39.724Z,97089.28
2023-01-27T01:06:01.101Z,97096.47
2023-01-27T01:07:24.100Z,97096.75
2023-01-27T01:08:45.042Z,97096.75
2023-01-27T01:10:09.988Z,97103.94
2023-01-27T01:11:33.043Z,97103.94
2023-01-27T01:12:53.846Z,97099.94
2023-01-27T01:14:16.599Z,97090.63
2023-01-27T01:15:39.761Z,97095.97
2023-01-27T01:17:00.662Z,97090.91
2023-01-27T01:18:21.669Z,97102.84
2023-01-27T01:19:44.331Z,97091.16
2023-01-27T01:21:08.195Z,97097.53
2023-01-27T01:22:29.523Z,97098.88
2023-01-27T01:23:50.484Z,97103.13
2023-01-27T01:25:14.042Z,97105.78
2023-01-27T01:26:34.455Z,97104.72
2023-01-27T01:27:55.715Z,97115.38
2023-01-27T01:29:19.415Z,97104.22
2023-01-27T01:30:40.369Z,97107.66
2023-01-27T01:32:04.485Z,97112.47
2023-01-27T01:33:25.982Z,97121.50
2023-01-27T01:34:46.777Z,97117.25
2023-01-27T01:36:08.484Z,97112.97
2023-01-27T01:37:30.248Z,97109.28
2023-01-27T01:38:54.367Z,97106.63
2023-01-27T01:40:18.203Z,97103.44
2023-01-27T01:41:39.788Z,97097.81
2023-01-27T01:43:02.877Z,97109.53
2023-01-27T01:44:24.583Z,97099.94
2023-01-27T01:45:47.448Z,97099.16
2023-01-27T01:47:15.048Z,97100.75
2023-01-27T01:48:36.560Z,97096.50
2023-01-27T01:50:00.383Z,97100.22
2023-01-27T01:51:22.625Z,97104.22
2023-01-27T01:52:43.221Z,97099.44
2023-01-27T01:54:06.488Z,97102.59
2023-01-27T01:55:32.818Z,97100.19
2023-01-27T01:56:54.170Z,97097.03
2023-01-27T01:58:14.798Z,97093.00
2023-01-27T01:59:37.961Z,97099.41
2023-01-27T02:00:59.005Z,97092.22
2023-01-27T02:02:22.730Z,97090.13
2023-01-27T02:03:51.019Z,97094.63
2023-01-27T02:05:16.521Z,97090.66
2023-01-27T02:06:40.570Z,97100.75
2023-01-27T02:08:04.752Z,97101.56
2023-01-27T02:09:27.472Z,97098.38
2023-01-27T02:10:51.277Z,97095.19
2023-01-27T02:12:11.876Z,97099.41
2023-01-27T02:13:35.615Z,97091.97
2023-01-27T02:14:56.713Z,97088.50
2023-01-27T02:16:19.502Z,97089.81
2023-01-27T02:17:40.047Z,97081.06
2023-01-27T02:19:04.684Z,97088.00
2023-01-27T02:20:31.411Z,97092.22
2023-01-27T02:21:53.578Z,97088.25
2023-01-27T02:23:32.005Z,97092.47
2023-01-27T02:24:56.667Z,97086.63
2023-01-27T02:26:23.647Z,97090.13
2023-01-27T02:27:46.661Z,97085.59
2023-01-27T02:29:08.586Z,97097.03
2023-01-27T02:30:30.084Z,97091.44
2023-01-27T02:31:51.538Z,97088.25
2023-01-27T02:33:15.371Z,97087.47
2023-01-27T02:34:37.799Z,97086.91
2023-01-27T02:36:01.302Z,97090.13
2023-01-27T02:37:23.368Z,97086.38
2023-01-27T02:38:48.582Z,97081.06
2023-01-27T02:40:10.809Z,97075.72
2023-01-27T02:41:35.294Z,97084.50
2023-01-27T02:42:56.792Z,97085.06
2023-01-27T02:44:20.368Z,97083.44
2023-01-27T02:45:41.071Z,97081.59
2023-01-27T02:47:01.963Z,97081.31
2023-01-27T02:48:22.894Z,97082.94
2023-01-27T02:49:46.017Z,97083.19
2023-01-27T02:51:07.036Z,97081.31
2023-01-27T02:52:29.008Z,97082.94
2023-01-27T02:53:53.192Z,97083.47
2023-01-27T02:55:15.792Z,97073.34
2023-01-27T02:56:41.962Z,97064.03
2023-01-27T02:58:07.349Z,97067.22
2023-01-27T02:59:40.684Z,97069.34
2023-01-27T03:01:01.306Z,97072.28
2023-01-27T03:02:21.834Z,97065.63
2023-01-27T03:03:46.439Z,97069.88
2023-01-27T03:05:10.559Z,97067.75
2023-01-27T03:06:33.827Z,97066.72
2023-01-27T03:07:54.412Z,97067.50
2023-01-27T03:09:15.335Z,97071.72
2023-01-27T03:10:36.275Z,97067.75
2023-01-27T03:11:59.595Z,97077.34
2023-01-27T03:13:21.505Z,97077.09
2023-01-27T03:14:42.368Z,97080.53
2023-01-27T03:16:03.772Z,97080.00
2023-01-27T03:17:24.489Z,97081.06
2023-01-27T03:18:45.298Z,97083.19
2023-01-27T03:20:06.563Z,97085.84
2023-01-27T03:21:27.480Z,97086.91
2023-01-27T03:22:48.225Z,97085.84
2023-01-27T03:24:13.160Z,97082.66
2023-01-27T03:25:40.179Z,97078.66
2023-01-27T03:27:03.981Z,97080.53
2023-01-27T03:28:44.959Z,97084.50
2023-01-27T03:30:13.453Z,97078.13
2023-01-27T03:31:42.785Z,97075.22
2023-01-27T03:33:04.826Z,97080.00
2023-01-27T03:34:40.217Z,97083.72
2023-01-27T03:36:08.051Z,97076.25
2023-01-27T03:37:31.334Z,97078.41
2023-01-27T03:38:55.127Z,97076.25
2023-01-27T03:40:18.174Z,97086.91
2023-01-27T03:41:41.082Z,97079.19
2023-01-27T03:43:07.461Z,97076.50
2023-01-27T03:44:28.585Z,97072.28
2023-01-27T03:45:51.712Z,97083.97
2023-01-27T03:47:12.700Z,97073.84
2023-01-27T03:48:33.597Z,97072.00
2023-01-27T03:49:54.602Z,97069.34
2023-01-27T03:51:15.690Z,97077.34
2023-01-27T03:52:36.456Z,97083.44
2023-01-27T03:53:57.588Z,97070.13
2023-01-27T03:55:20.866Z,97073.59
2023-01-27T03:56:41.951Z,97074.69
2023-01-27T03:58:03.127Z,97073.84
2023-01-27T03:59:26.201Z,97073.91
2023-01-27T04:00:47.244Z,97081.88
2023-01-27T04:02:08.119Z,97074.16
2023-01-27T04:03:33.010Z,97081.88
2023-01-27T04:04:54.036Z,97069.38
2023-01-27T04:06:16.002Z,97068.59
2023-01-27T04:07:39.462Z,97061.66
2023-01-27T04:09:00.228Z,97067.50
2023-01-27T04:10:21.075Z,97068.00
2023-01-27T04:11:41.906Z,97069.63
2023-01-27T04:13:05.505Z,97062.97
2023-01-27T04:14:31.907Z,97060.59
2023-01-27T04:15:55.642Z,97070.16
2023-01-27T04:17:17.365Z,97064.59
2023-01-27T04:18:38.421Z,97060.31
2023-01-27T04:19:59.165Z,97053.41
2023-01-27T04:21:19.691Z,97052.06
2023-01-27T04:22:42.611Z,97055.53
2023-01-27T04:24:03.985Z,97059.25
2023-01-27T04:25:24.997Z,97061.63
2023-01-27T04:26:46.285Z,97058.97
2023-01-27T04:28:07.397Z,97056.84
2023-01-27T04:29:31.299Z,97056.59
2023-01-27T04:30:51.797Z,97051.81
2023-01-27T04:32:13.172Z,97059.78
2023-01-27T04:33:36.217Z,97062.44
2023-01-27T04:34:56.790Z,97059.25
2023-01-27T04:36:17.376Z,97058.75
2023-01-27T04:37:38.293Z,97064.31
2023-01-27T04:38:59.241Z,97071.50
2023-01-27T04:40:23.163Z,97065.66
2023-01-27T04:41:44.311Z,97065.66
2023-01-27T04:43:05.071Z,97067.25
2023-01-27T04:44:32.213Z,97073.88
2023-01-27T04:45:53.126Z,97067.00
2023-01-27T04:47:16.177Z,97070.97
2023-01-27T04:48:37.043Z,97067.53
2023-01-27T04:49:57.702Z,97076.28
2023-01-27T04:51:18.364Z,97076.81
2023-01-27T04:52:39.197Z,97066.47
2023-01-27T04:54:01.645Z,97076.31
2023-01-27T04:55:22.238Z,97080.56
2023-01-27T04:56:43.294Z,97080.84
2023-01-27T04:58:04.260Z,97081.88
2023-01-27T04:59:25.078Z,97079.22
2023-01-27T05:00:51.065Z,97075.47
2023-01-27T05:02:14.000Z,97088.25
2023-01-27T05:03:34.754Z,97087.47
2023-01-27T05:04:55.649Z,97091.19
2023-01-27T05:06:19.411Z,97084.81
2023-01-27T05:07:40.419Z,97089.03
2023-01-27T05:09:03.543Z,97081.88
2023-01-27T05:10:26.544Z,97084.81
2023-01-27T05:11:49.467Z,97080.28
2023-01-27T05:13:12.830Z,97084.53
2023-01-27T05:14:33.946Z,97086.38
2023-01-27T05:16:07.099Z,97091.19
2023-01-27T05:17:30.594Z,97085.34
2023-01-27T05:18:51.999Z,97088.78
2023-01-27T05:20:12.820Z,97087.47
2023-01-27T05:21:35.897Z,97092.50
2023-01-27T05:22:58.967Z,97098.09
2023-01-27T05:24:19.860Z,97105.00
2023-01-27T05:25:44.297Z,97106.88
2023-01-27T05:27:07.185Z,97106.88
2023-01-27T05:28:28.400Z,97112.47
2023-01-27T05:29:52.450Z,97107.13
2023-01-27T05:31:17.136Z,97107.13
2023-01-27T05:32:37.719Z,97101.03
2023-01-27T05:33:59.400Z,97112.72
2023-01-27T05:35:20.159Z,97111.94
2023-01-27T05:36:41.260Z,97112.44
2023-01-27T05:38:02.291Z,97110.31
2023-01-27T05:39:23.315Z,97114.28
2023-01-27T05:40:44.266Z,97122.56
2023-01-27T05:42:07.589Z,97118.81
2023-01-27T05:43:29.347Z,97127.84
2023-01-27T05:44:50.641Z,97128.41
2023-01-27T05:46:12.749Z,97125.47
2023-01-27T05:47:36.097Z,97125.75
2023-01-27T05:48:58.665Z,97129.22
2023-01-27T05:50:19.648Z,97125.78
2023-01-27T05:51:40.365Z,97127.38
2023-01-27T05:53:01.005Z,97132.13
2023-01-27T05:54:21.818Z,97122.78
2023-01-27T05:55:43.485Z,97132.66
2023-01-27T05:57:04.457Z,97132.69
2023-01-27T05:58:25.628Z,97123.09
2023-01-27T05:59:46.509Z,97125.25
2023-01-27T06:01:07.847Z,97129.78
2023-01-27T06:02:28.878Z,97126.03
2023-01-27T06:03:52.397Z,97127.38
2023-01-27T06:05:13.295Z,97131.59
2023-01-27T06:06:34.558Z,97127.06
2023-01-27T06:07:57.460Z,97130.25
2023-01-27T06:09:20.412Z,97135.59
2023-01-27T06:10:43.518Z,97125.75
2023-01-27T06:12:04.452Z,97133.22
2023-01-27T06:13:26.116Z,97126.53
2023-01-27T06:14:47.085Z,97141.72
2023-01-27T06:16:09.524Z,97133.44
2023-01-27T06:17:32.683Z,97139.84
2023-01-27T06:18:56.079Z,97136.66
2023-01-27T06:20:16.802Z,97143.88
2023-01-27T06:21:37.609Z,97140.63
2023-01-27T06:22:58.368Z,97142.53
2023-01-27T06:24:21.681Z,97153.47
2023-01-27T06:25:44.390Z,97141.72
2023-01-27T06:27:05.170Z,97139.06
2023-01-27T06:28:29.523Z,97143.03
2023-01-27T06:29:50.545Z,97150.50
2023-01-27T06:31:15.419Z,97160.63
2023-01-27T06:32:36.719Z,97162.50
2023-01-27T06:34:00.446Z,97157.94
2023-01-27T06:35:23.427Z,97165.91
2023-01-27T06:36:46.434Z,97160.31
2023-01-27T06:38:08.005Z,97162.44
2023-01-27T06:39:28.731Z,97160.63
2023-01-27T06:40:49.329Z,97165.41
2023-01-27T06:42:12.027Z,97161.13
2023-01-27T06:43:32.727Z,97161.94
2023-01-27T06:44:53.504Z,97149.41
2023-01-27T06:46:14.063Z,97163.53
2023-01-27T06:47:37.893Z,97160.31
2023-01-27T06:49:01.573Z,97160.06
2023-01-27T06:50:22.046Z,97158.72
2023-01-27T06:51:45.115Z,97157.97
2023-01-27T06:53:08.239Z,97163.28
2023-01-27T06:54:29.179Z,97159.25
2023-01-27T06:55:55.006Z,97157.16
2023-01-27T06:57:15.711Z,97158.72
2023-01-27T06:58:36.764Z,97158.44
2023-01-27T06:59:57.495Z,97158.72
2023-01-27T07:01:18.208Z,97161.91
2023-01-27T07:02:40.894Z,97169.09
2023-01-27T07:04:04.647Z,97168.03
2023-01-27T07:05:25.897Z,97171.22
2023-01-27T07:06:49.490Z,97175.44
2023-01-27T07:08:11.210Z,97172.28
2023-01-27T07:09:37.487Z,97175.44
2023-01-27T07:11:04.197Z,97181.59
2023-01-27T07:12:27.460Z,97178.41
2023-01-27T07:13:48.386Z,97176.28
2023-01-27T07:15:11.871Z,97180.50
2023-01-27T07:16:34.937Z,97176.28
2023-01-27T07:17:58.103Z,97177.38
2023-01-27T07:19:23.909Z,97174.69
2023-01-27T07:20:44.851Z,97174.44
2023-01-27T07:22:05.675Z,97173.13
2023-01-27T07:23:26.668Z,97177.94
2023-01-27T07:24:47.493Z,97175.78
2023-01-27T07:26:23.284Z,97175.50
2023-01-27T07:27:45.117Z,97179.50
2023-01-27T07:29:05.977Z,97172.03
2023-01-27T07:30:27.380Z,97174.44
2023-01-27T07:31:51.228Z,97174.19
2023-01-27T07:33:12.760Z,97181.06
2023-01-27T07:34:36.358Z,97176.53
2023-01-27T07:35:57.102Z,97178.69
2023-01-27T07:37:17.839Z,97175.22
2023-01-27T07:38:38.749Z,97171.53
2023-01-27T07:39:59.706Z,97171.78
2023-01-27T07:41:20.763Z,97171.53
2023-01-27T07:42:43.627Z,97174.41
2023-01-27T07:44:04.344Z,97171.22
2023-01-27T07:45:28.357Z,97175.75
2023-01-27T07:46:51.282Z,97166.97
2023-01-27T07:48:14.734Z,97177.38
2023-01-27T07:49:40.029Z,97172.31
2023-01-27T07:51:00.830Z,97169.91
2023-01-27T07:52:21.899Z,97168.81
2023-01-27T07:53:43.069Z,97171.53
2023-01-27T07:55:04.098Z,97175.50
2023-01-27T07:56:25.103Z,97172.56
2023-01-27T07:57:46.014Z,97166.47
2023-01-27T07:59:07.002Z,97167.50
2023-01-27T08:00:28.491Z,97170.94
2023-01-27T08:01:49.589Z,97157.91
2023-01-27T08:03:20.582Z,97160.56
2023-01-27T08:04:53.019Z,97164.00
2023-01-27T08:06:14.513Z,97174.94
2023-01-27T08:07:35.273Z,97169.38
2023-01-27T08:08:56.080Z,97166.41
2023-01-27T08:10:16.918Z,97167.50
2023-01-27T08:11:37.868Z,97170.16
2023-01-27T08:12:58.810Z,97169.38
2023-01-27T08:14:21.913Z,97171.75
2023-01-27T08:15:42.544Z,97169.91
2023-01-27T08:17:03.329Z,97177.91
2023-01-27T08:18:24.092Z,97169.66
2023-01-27T08:19:47.697Z,97179.50
2023-01-27T08:21:10.508Z,97180.56
2023-01-27T08:22:31.436Z,97180.56
2023-01-27T08:23:53.046Z,97185.88
2023-01-27T08:25:16.010Z,97181.34
2023-01-27T08:26:39.077Z,97180.28
2023-01-27T08:27:59.892Z,97185.34
2023-01-27T08:29:20.866Z,97179.25
2023-01-27T08:30:41.921Z,97189.63
2023-01-27T08:32:03.034Z,97194.41
2023-01-27T08:33:24.113Z,97190.94
2023-01-27T08:34:49.886Z,97190.94
2023-01-27T08:36:11.897Z,97199.19
2023-01-27T08:37:32.600Z,97196.53
2023-01-27T08:38:53.621Z,97203.72
2023-01-27T08:40:17.564Z,97202.09
2023-01-27T08:41:38.877Z,97196.78
2023-01-27T08:42:59.638Z,97192.28
2023-01-27T08:44:20.682Z,97194.13
2023-01-27T08:45:44.194Z,97205.28
2023-01-27T08:47:07.383Z,97201.59
2023-01-27T08:48:28.844Z,97202.09
2023-01-27T08:49:52.127Z,97208.00
2023-01-27T08:51:14.102Z,97207.44
2023-01-27T08:52:34.636Z,97215.94
2023-01-27T08:53:55.441Z,97212.75
2023-01-27T08:55:16.529Z,97216.50
2023-01-27T08:56:37.634Z,97214.09
2023-01-27T08:57:58.924Z,97218.06
2023-01-27T08:59:22.341Z,97220.47
2023-01-27T09:00:45.401Z,97220.75
2023-01-27T09:02:06.455Z,97218.63
2023-01-27T09:03:27.562Z,97219.41
2023-01-27T09:04:53.226Z,97224.75
2023-01-27T09:06:16.926Z,97209.31
2023-01-27T09:07:40.259Z,97226.06
2023-01-27T09:09:03.494Z,97221.53
2023-01-27T09:10:26.631Z,97219.41
2023-01-27T09:11:47.479Z,97215.41
2023-01-27T09:13:08.200Z,97222.06
2023-01-27T09:14:29.217Z,97216.47
2023-01-27T09:15:51.056Z,97224.19
2023-01-27T09:17:12.098Z,97226.06
2023-01-27T09:18:33.170Z,97225.78
2023-01-27T09:19:58.835Z,97230.31
2023-01-27T09:21:19.793Z,97232.16
2023-01-27T09:22:41.055Z,97224.44
2023-01-27T09:24:01.929Z,97222.06
2023-01-27T09:25:22.992Z,97227.41
2023-01-27T09:26:43.922Z,97231.66
2023-01-27T09:28:05.139Z,97232.72
2023-01-27T09:29:26.250Z,97236.69
2023-01-27T09:30:47.381Z,97235.91
2023-01-27T09:32:08.463Z,97236.97
2023-01-27T09:33:28.941Z,97235.09
2023-01-27T09:34:49.688Z,97243.63
2023-01-27T09:36:16.747Z,97241.22
2023-01-27T09:37:40.718Z,97233.25
2023-01-27T09:39:02.441Z,97242.56
2023-01-27T09:40:29.487Z,97244.94
2023-01-27T09:42:00.411Z,97237.22
2023-01-27T09:43:33.114Z,97243.38
2023-01-27T09:45:02.131Z,97259.34
2023-01-27T09:46:34.504Z,97240.72
2023-01-27T09:48:05.623Z,97251.34
2023-01-27T09:49:34.730Z,97252.94
2023-01-27T09:50:57.810Z,97241.50
2023-01-27T09:52:41.830Z,97245.22
2023-01-27T09:54:21.600Z,97243.63
2023-01-27T09:55:44.304Z,97243.63
2023-01-27T09:57:09.450Z,97247.88
2023-01-27T09:58:36.603Z,97238.31
2023-01-27T10:00:03.102Z,97248.16
2023-01-27T10:01:29.581Z,97246.03
2023-01-27T10:03:10.930Z,97248.94
2023-01-27T10:04:52.684Z,97254.53
2023-01-27T10:06:20.944Z,97249.22
2023-01-27T10:08:02.542Z,97245.50
2023-01-27T10:09:30.293Z,97251.63
2023-01-27T10:10:58.251Z,97254.00
2023-01-27T10:12:31.419Z,97255.63
2023-01-27T10:13:58.087Z,97254.53
2023-01-27T10:15:24.830Z,97254.00
2023-01-27T10:16:56.870Z,97255.09
2023-01-27T10:18:25.802Z,97257.75
2023-01-27T10:19:54.811Z,97264.66
2023-01-27T10:21:21.569Z,97273.72
2023-01-27T10:22:46.962Z,97272.63
2023-01-27T10:24:16.946Z,97270.25
2023-01-27T10:25:53.039Z,97268.41
2023-01-27T10:27:16.489Z,97273.16
2023-01-27T10:28:42.646Z,97262.25
2023-01-27T10:30:08.421Z,97263.09
2023-01-27T10:31:35.680Z,97269.19
2023-01-27T10:33:03.760Z,97273.72
2023-01-27T10:34:27.951Z,97266.53
2023-01-27T10:35:52.074Z,97262.78
2023-01-27T10:37:24.760Z,97262.25
2023-01-27T10:38:51.762Z,97261.47
2023-01-27T10:40:19.164Z,97269.44
2023-01-27T10:41:44.202Z,97264.41
2023-01-27T10:43:10.481Z,97267.59
2023-01-27T10:44:39.408Z,97261.19
2023-01-27T10:46:09.280Z,97264.66
2023-01-27T10:47:36.938Z,97257.47
2023-01-27T10:49:02.057Z,97256.69
2023-01-27T10:50:27.322Z,97261.19
2023-01-27T10:51:52.980Z,97263.56
2023-01-27T10:53:17.214Z,97254.53
2023-01-27T10:54:41.035Z,97250.81
2023-01-27T10:56:06.533Z,97258.81
2023-01-27T10:57:30.959Z,97252.16
2023-01-27T10:58:56.348Z,97248.91
2023-01-27T11:00:46.462Z,97257.19
2023-01-27T11:02:07.198Z,97255.31
2023-01-27T11:03:30.413Z,97259.56
2023-01-27T11:04:57.153Z,97255.59
2023-01-27T11:06:21.544Z,97258.00
2023-01-27T11:07:46.194Z,97262.53
2023-01-27T11:09:14.772Z,97258.25
2023-01-27T11:10:40.551Z,97256.38
2023-01-27T11:12:05.458Z,97254.53
2023-01-27T11:13:26.569Z,97248.69
2023-01-27T11:14:49.036Z,97257.72
2023-01-27T11:16:14.903Z,97249.22
2023-01-27T11:17:41.929Z,97253.97
2023-01-27T11:19:14.703Z,97247.88
2023-01-27T11:20:39.924Z,97246.00
2023-01-27T11:22:08.332Z,97243.06
2023-01-27T11:23:31.015Z,97245.47
2023-01-27T11:24:59.875Z,97243.91
2023-01-27T11:26:28.096Z,97242.81
2023-01-27T11:28:00.532Z,97239.09
2023-01-27T11:29:26.395Z,97236.69
2023-01-27T11:30:54.241Z,97236.44
2023-01-27T11:32:23.162Z,97241.47
2023-01-27T11:33:51.245Z,97235.34
2023-01-27T11:35:13.465Z,97235.91
2023-01-27T11:36:36.558Z,97236.44
2023-01-27T11:38:14.485Z,97238.28
2023-01-27T11:39:39.165Z,97235.63
2023-01-27T11:40:59.899Z,97237.22
2023-01-27T11:42:24.602Z,97221.78
2023-01-27T11:43:48.146Z,97222.59
2023-01-27T11:45:13.474Z,97228.16
2023-01-27T11:46:34.325Z,97224.19
2023-01-27T11:47:57.010Z,97223.34
2023-01-27T11:49:21.524Z,97221.00
2023-01-27T11:50:43.581Z,97214.06
2023-01-27T11:52:09.837Z,97216.97
2023-01-27T11:53:35.716Z,97216.44
2023-01-27T11:55:04.066Z,97224.44
2023-01-27T11:56:25.003Z,97217.25
2023-01-27T11:57:51.414Z,97225.22
2023-01-27T11:59:18.409Z,97220.16
2023-01-27T12:00:45.387Z,97223.88
2023-01-27T12:02:17.996Z,97222.84
2023-01-27T12:03:45.579Z,97223.09
2023-01-27T12:05:07.926Z,97227.63
2023-01-27T12:06:33.324Z,97228.16
2023-01-27T12:07:57.890Z,97231.63
2023-01-27T12:09:30.026Z,97226.31
2023-01-27T12:10:51.167Z,97225.50
2023-01-27T12:12:21.388Z,97223.34
2023-01-27T12:13:47.884Z,97221.25
2023-01-27T12:15:15.264Z,97225.78
2023-01-27T12:16:42.853Z,97225.50
2023-01-27T12:18:12.378Z,97217.00
2023-01-27T12:19:35.944Z,97215.41
2023-01-27T12:21:00.751Z,97218.84
2023-01-27T12:22:24.721Z,97216.72
2023-01-27T12:23:50.062Z,97210.88
2023-01-27T12:25:15.562Z,97217.81
2023-01-27T12:26:40.616Z,97215.94
2023-01-27T12:28:02.672Z,97209.81
2023-01-27T12:29:26.865Z,97206.06
2023-01-27T12:30:51.015Z,97202.34
2023-01-27T12:32:15.245Z,97205.28
2023-01-27T12:33:37.636Z,97194.66
2023-01-27T12:34:58.271Z,97201.03
2023-01-27T12:36:20.507Z,97199.19
2023-01-27T12:37:41.111Z,97198.34
2023-01-27T12:39:02.304Z,97199.44
2023-01-27T12:40:26.789Z,97192.50
2023-01-27T12:41:47.799Z,97187.19
2023-01-27T12:43:12.537Z,97187.19
2023-01-27T12:44:40.765Z,97189.59
2023-01-27T12:46:20.260Z,97189.06
2023-01-27T12:47:54.317Z,97189.06
2023-01-27T12:49:20.528Z,97184.53
2023-01-27T12:50:42.449Z,97183.75
2023-01-27T12:52:05.909Z,97187.19
2023-01-27T12:53:27.472Z,97182.94
2023-01-27T12:54:48.433Z,97181.88
2023-01-27T12:56:12.193Z,97190.94
2023-01-27T12:57:33.268Z,97185.88
2023-01-27T12:58:58.131Z,97182.16
2023-01-27T13:00:19.253Z,97181.34
2023-01-27T13:01:57.354Z,97185.88
2023-01-27T13:03:20.728Z,97183.75
2023-01-27T13:04:42.181Z,97181.88
2023-01-27T13:06:03.052Z,97182.69
2023-01-27T13:07:28.020Z,97181.59
2023-01-27T13:08:51.397Z,97182.16
2023-01-27T13:10:17.113Z,97189.31
2023-01-27T13:11:40.129Z,97187.19
2023-01-27T13:13:03.073Z,97183.22
2023-01-27T13:14:24.113Z,97189.84
2023-01-27T13:15:55.855Z,97185.88
2023-01-27T13:17:41.581Z,97196.00
2023-01-27T13:19:15.926Z,97193.59
2023-01-27T13:20:39.716Z,97195.22
2023-01-27T13:22:03.813Z,97186.44
2023-01-27T13:23:26.283Z,97203.72
2023-01-27T13:24:51.747Z,97198.91
2023-01-27T13:26:17.589Z,97195.72
2023-01-27T13:27:39.459Z,97198.41
2023-01-27T13:29:04.961Z,97199.19
2023-01-27T13:30:28.629Z,97191.19
2023-01-27T13:31:51.516Z,97200.78
2023-01-27T13:33:24.935Z,97188.53
2023-01-27T13:34:48.640Z,97199.19
2023-01-27T13:36:12.378Z,97193.84
2023-01-27T13:37:40.660Z,97193.84
2023-01-27T13:39:06.935Z,97195.22
2023-01-27T13:40:31.937Z,97190.69
2023-01-27T13:41:56.543Z,97187.47
2023-01-27T13:43:19.661Z,97194.69
2023-01-27T13:44:43.620Z,97202.66
2023-01-27T13:46:06.562Z,97202.94
2023-01-27T13:47:34.738Z,97205.81
2023-01-27T13:49:04.837Z,97204.50
2023-01-27T13:50:31.033Z,97200.50
2023-01-27T13:51:51.966Z,97205.28
2023-01-27T13:53:16.207Z,97208.75
2023-01-27T13:54:39.235Z,97212.19
2023-01-27T13:56:07.313Z,97211.94
2023-01-27T13:57:40.888Z,97211.41
2023-01-27T13:59:08.726Z,97207.94
2023-01-27T14:00:35.523Z,97208.75
2023-01-27T14:02:02.850Z,97210.56
2023-01-27T14:03:41.538Z,97209.25
2023-01-27T14:05:12.762Z,97217.00
2023-01-27T14:06:40.827Z,97204.19
2023-01-27T14:08:07.160Z,97208.72
2023-01-27T14:09:35.189Z,97211.94
2023-01-27T14:11:04.143Z,97210.31
2023-01-27T14:12:32.401Z,97214.06
2023-01-27T14:13:59.220Z,97220.94
2023-01-27T14:15:25.919Z,97218.56
2023-01-27T14:16:59.262Z,97217.78
2023-01-27T14:18:21.803Z,97221.00
2023-01-27T14:19:52.099Z,97228.16
2023-01-27T14:21:40.706Z,97218.06
2023-01-27T14:23:06.466Z,97217.00
2023-01-27T14:24:33.054Z,97218.84
2023-01-27T14:25:59.760Z,97231.38
2023-01-27T14:27:24.444Z,97224.44
2023-01-27T14:28:58.585Z,97230.56
2023-01-27T14:30:23.954Z,97221.56
2023-01-27T14:31:48.488Z,97228.50
2023-01-27T14:33:16.713Z,97228.50
2023-01-27T14:34:46.834Z,97230.06
2023-01-27T14:36:15.967Z,97230.06
2023-01-27T14:37:44.477Z,97229.81
2023-01-27T14:39:13.662Z,97236.47
2023-01-27T14:40:42.552Z,97233.81
2023-01-27T14:42:07.283Z,97236.19
2023-01-27T14:43:35.993Z,97230.06
2023-01-27T14:45:04.268Z,97240.44
2023-01-27T14:46:35.255Z,97245.50
2023-01-27T14:48:02.533Z,97237.78
2023-01-27T14:49:29.015Z,97235.13
2023-01-27T14:50:56.454Z,97240.19
2023-01-27T14:52:26.691Z,97232.72
2023-01-27T14:53:57.459Z,97242.03
2023-01-27T14:55:32.878Z,97245.78
2023-01-27T14:57:05.727Z,97241.50
2023-01-27T14:58:36.241Z,97242.56
2023-01-27T15:00:03.581Z,97237.22
2023-01-27T15:01:29.497Z,97238.03
2023-01-27T15:02:58.666Z,97236.69
2023-01-27T15:04:33.546Z,97249.44
2023-01-27T15:05:57.905Z,97251.06
2023-01-27T15:07:21.750Z,97251.31
2023-01-27T15:08:46.406Z,97250.78
2023-01-27T15:10:20.709Z,97267.84
2023-01-27T15:11:50.403Z,97261.97
2023-01-27T15:13:21.230Z,97258.25
2023-01-27T15:14:52.781Z,97262.00
2023-01-27T15:16:27.173Z,97265.72
2023-01-27T15:17:55.265Z,97253.50
2023-01-27T15:19:26.156Z,97250.31
2023-01-27T15:20:58.421Z,97252.97
2023-01-27T15:22:40.714Z,97254.53
2023-01-27T15:24:19.200Z,97271.81
2023-01-27T15:25:44.639Z,97261.72
2023-01-27T15:27:06.782Z,97259.03
2023-01-27T15:28:28.647Z,97255.06
2023-01-27T15:29:49.596Z,97252.16
2023-01-27T15:31:25.128Z,97263.06
2023-01-27T15:32:47.897Z,97262.00
2023-01-27T15:34:15.809Z,97252.94
2023-01-27T15:35:38.072Z,97261.19
2023-01-27T15:37:00.832Z,97263.84
2023-01-27T15:38:32.759Z,97256.91
2023-01-27T15:40:03.963Z,97267.03
2023-01-27T15:41:28.645Z,97260.66
2023-01-27T15:42:52.569Z,97255.31
2023-01-27T15:44:15.417Z,97262.00
2023-01-27T15:45:36.689Z,97263.56
2023-01-27T15:47:03.816Z,97262.78
2023-01-27T15:48:27.615Z,97262.00
2023-01-27T15:49:49.745Z,97262.78
2023-01-27T15:51:16.626Z,97265.19
2023-01-27T15:52:40.807Z,97268.09
2023-01-27T15:54:04.338Z,97262.25
2023-01-27T15:55:26.599Z,97264.38
2023-01-27T15:56:52.315Z,97258.25
2023-01-27T15:58:21.430Z,97259.34
2023-01-27T15:59:57.120Z,97252.16
2023-01-27T16:01:23.860Z,97263.56
2023-01-27T16:02:45.943Z,97262.25
2023-01-27T16:04:14.213Z,97263.06
2023-01-27T16:05:36.715Z,97264.94
2023-01-27T16:06:59.227Z,97270.25
2023-01-27T16:08:20.713Z,97272.13
2023-01-27T16:09:42.906Z,97273.16
2023-01-27T16:11:18.817Z,97278.50
2023-01-27T16:12:43.175Z,97280.63
2023-01-27T16:14:21.124Z,97270.50
2023-01-27T16:15:41.846Z,97270.28
2023-01-27T16:17:03.193Z,97278.22
2023-01-27T16:18:40.414Z,97290.47
2023-01-27T16:20:14.027Z,97288.59
2023-01-27T16:21:44.139Z,97293.94
2023-01-27T16:23:11.706Z,97295.78
2023-01-27T16:24:39.569Z,97299.53
2023-01-27T16:26:07.130Z,97295.72
2023-01-27T16:27:42.524Z,97295.16
2023-01-27T16:29:19.094Z,97286.22
2023-01-27T16:30:46.949Z,97296.84